createdAt,value
2023-03-04T00:00:31.602Z,75.47
2023-03-04T00:02:58.758Z,75.22
2023-03-04T00:05:25.856Z,75.54
2023-03-04T00:07:53.107Z,75.38
2023-03-04T00:10:20.328Z,75.72
2023-03-04T00:12:47.575Z,75.97
2023-03-04T00:15:15.443Z,75.76
2023-03-04T00:17:42.701Z,75.99
2023-03-04T00:20:10.669Z,75.93
2023-03-04T00:22:38.155Z,76.26
2023-03-04T00:25:05.933Z,76.20
2023-03-04T00:27:33.106Z,76.16
2023-03-04T00:30:00.242Z,75.81
2023-03-04T00:32:27.411Z,76.36
2023-03-04T00:34:54.537Z,76.21
2023-03-04T00:37:22.043Z,76.63
2023-03-04T00:39:49.274Z,76.72
2023-03-04T00:42:16.405Z,76.58
2023-03-04T00:44:43.610Z,76.16
2023-03-04T00:47:10.838Z,76.76
2023-03-04T00:49:38.189Z,76.50
2023-03-04T00:52:05.415Z,77.11
2023-03-04T00:54:32.680Z,76.88
2023-03-04T00:56:59.884Z,77.00
2023-03-04T00:59:27.043Z,76.37
2023-03-04T01:01:54.249Z,76.56
2023-03-04T01:04:21.379Z,76.31
2023-03-04T01:06:48.603Z,76.64
2023-03-04T01:09:16.080Z,76.99
2023-03-04T01:11:43.309Z,77.08
2023-03-04T01:14:10.677Z,77.43
2023-03-04T01:16:37.827Z,77.36
2023-03-04T01:19:05.033Z,77.41
2023-03-04T01:21:32.069Z,77.24
2023-03-04T01:23:59.130Z,76.97
2023-03-04T01:26:26.277Z,76.92
2023-03-04T01:28:53.457Z,77.14
2023-03-04T01:31:20.727Z,77.36
2023-03-04T01:33:47.860Z,77.49
2023-03-04T01:36:14.926Z,77.50
2023-03-04T01:38:42.102Z,77.35
2023-03-04T01:41:10.196Z,77.59
2023-03-04T01:43:38.448Z,77.22
2023-03-04T01:46:07.211Z,77.34
2023-03-04T01:48:38.461Z,77.53
2023-03-04T01:51:11.296Z,77.85
2023-03-04T01:53:38.702Z,77.38
2023-03-04T01:56:37.585Z,77.93
2023-03-04T01:59:18.831Z,77.56
2023-03-04T02:01:53.046Z,77.14
2023-03-04T02:04:28.735Z,77.44
2023-03-04T02:06:57.532Z,77.50
2023-03-04T02:09:25.080Z,77.02
2023-03-04T02:11:53.595Z,77.40
2023-03-04T02:23:33.524Z,77.76
2023-03-04T02:26:29.351Z,78.02
2023-03-04T02:37:47.517Z,77.90
2023-03-04T02:55:47.784Z,79.32
2023-03-04T02:58:15.318Z,79.09
2023-03-04T03:18:11.346Z,79.29
2023-03-04T03:20:38.527Z,79.46
2023-03-04T04:29:51.154Z,78.24
2023-03-04T04:32:18.268Z,77.85
2023-03-04T04:34:45.392Z,78.04
2023-03-04T04:45:59.956Z,77.82
2023-03-04T04:51:21.735Z,77.67
2023-03-04T05:00:10.809Z,77.81
2023-03-04T05:02:38.908Z,77.44
2023-03-04T05:31:20.321Z,76.16
2023-03-04T05:36:42.242Z,76.70
2023-03-04T05:42:04.252Z,76.38
2023-03-04T06:02:40.033Z,76.60
2023-03-04T06:05:09.056Z,76.21
2023-03-04T06:07:36.601Z,76.08
2023-03-04T06:10:05.321Z,76.66
2023-03-04T06:12:32.761Z,77.28
2023-03-04T06:14:59.914Z,77.07
2023-03-04T06:17:27.056Z,77.03
2023-03-04T06:19:54.124Z,76.91
2023-03-04T06:22:21.382Z,77.45
2023-03-04T06:24:48.575Z,77.48
2023-03-04T06:27:16.790Z,77.81
2023-03-04T06:29:43.897Z,77.88
2023-03-04T06:32:11.317Z,77.79
2023-03-04T06:34:38.589Z,77.77
2023-03-04T06:37:05.807Z,78.05
2023-03-04T06:39:33.148Z,77.78
2023-03-04T06:42:00.552Z,78.45
2023-03-04T06:44:27.728Z,77.96
2023-03-04T06:46:54.906Z,78.03
2023-03-04T06:49:22.102Z,78.06
2023-03-04T06:51:49.315Z,77.90
2023-03-04T06:54:16.470Z,77.79
2023-03-04T06:56:43.519Z,77.68
2023-03-04T06:59:10.918Z,77.59
2023-03-04T07:01:38.285Z,77.62
2023-03-04T07:04:05.709Z,78.28
2023-03-04T07:06:33.397Z,78.34
2023-03-04T07:09:00.740Z,78.49
2023-03-04T07:11:28.116Z,78.56
2023-03-04T07:13:55.581Z,78.58
2023-03-04T07:16:24.310Z,78.01
2023-03-04T07:18:51.572Z,78.12
2023-03-04T07:21:19.190Z,78.08
2023-03-04T07:23:46.595Z,77.81
2023-03-04T07:26:14.043Z,77.63
2023-03-04T07:28:42.893Z,77.33
2023-03-04T07:31:25.563Z,77.22
2023-03-04T07:33:52.706Z,77.36
2023-03-04T07:36:20.193Z,77.30
2023-03-04T08:05:07.795Z,75.13
2023-03-04T08:08:06.936Z,75.46
2023-03-04T08:10:34.355Z,75.47
2023-03-04T08:13:01.621Z,76.03
2023-03-04T08:21:20.396Z,75.88
2023-03-04T08:23:48.275Z,75.46
2023-03-04T08:29:32.132Z,75.28
2023-03-04T08:37:50.846Z,75.02
2023-03-04T08:40:18.108Z,74.77
2023-03-04T08:42:45.220Z,75.06
2023-03-04T08:45:12.567Z,74.94
2023-03-04T08:47:40.946Z,74.67
2023-03-04T08:50:09.120Z,74.70
2023-03-04T08:52:36.740Z,74.61
2023-03-04T08:55:04.147Z,74.76
2023-03-04T08:57:31.286Z,74.52
2023-03-04T08:59:58.347Z,74.75
2023-03-04T09:02:25.402Z,74.29
2023-03-04T09:04:52.424Z,74.88
2023-03-04T09:07:19.497Z,74.32
2023-03-04T09:09:46.693Z,74.58
2023-03-04T09:12:13.730Z,74.51
2023-03-04T09:14:40.831Z,74.13
2023-03-04T09:17:09.337Z,74.33
2023-03-04T09:19:37.004Z,74.05
2023-03-04T09:22:04.090Z,74.10
2023-03-04T09:24:31.154Z,73.25
2023-03-04T09:26:58.244Z,73.45
2023-03-04T09:29:25.480Z,73.73
2023-03-04T09:31:52.569Z,74.07
2023-03-04T09:34:19.580Z,73.63
2023-03-04T09:36:46.891Z,73.81
2023-03-04T09:39:14.222Z,74.05
2023-03-04T09:41:46.926Z,74.30
2023-03-04T09:44:37.269Z,74.21
2023-03-04T09:47:11.574Z,74.54
2023-03-04T09:49:43.584Z,74.80
2023-03-04T09:52:15.321Z,74.64
2023-03-04T09:55:16.542Z,74.49
2023-03-04T09:58:07.434Z,74.39
2023-03-04T10:00:46.197Z,74.07
2023-03-04T10:03:39.262Z,73.45
2023-03-04T10:06:11.784Z,73.93
2023-03-04T10:09:11.403Z,74.03
2023-03-04T10:11:50.227Z,73.99
2023-03-04T10:14:23.028Z,74.39
2023-03-04T10:17:07.426Z,74.10
2023-03-04T10:20:21.293Z,74.24
2023-03-04T10:22:56.577Z,74.08
2023-03-04T10:25:26.624Z,73.91
2023-03-04T10:28:04.862Z,73.29
2023-03-04T10:30:43.830Z,73.26
2023-03-04T10:33:19.956Z,73.13
2023-03-04T10:36:19.538Z,73.10
2023-03-04T10:38:46.637Z,74.16
2023-03-04T10:41:22.692Z,73.59
2023-03-04T10:44:11.450Z,73.79
2023-03-04T10:46:47.599Z,74.48
2023-03-04T10:49:18.329Z,74.53
2023-03-04T10:52:24.157Z,75.23
2023-03-04T10:55:01.098Z,75.04
2023-03-04T10:57:39.500Z,75.40
2023-03-04T11:00:41.742Z,76.04
2023-03-04T11:03:36.101Z,76.65
2023-03-04T11:06:22.975Z,76.96
2023-03-04T11:08:59.811Z,77.16
2023-03-04T11:11:44.870Z,77.01
2023-03-04T11:14:44.422Z,78.10
2023-03-04T11:17:40.669Z,78.54
2023-03-04T11:20:23.090Z,78.87
2023-03-04T11:22:50.847Z,78.33
2023-03-04T11:25:40.894Z,79.04
2023-03-04T11:28:33.688Z,79.17
2023-03-04T11:31:30.617Z,78.91
2023-03-04T11:34:07.017Z,79.03
2023-03-04T11:37:06.245Z,79.21
2023-03-04T11:39:34.925Z,79.34
2023-03-04T11:42:38.783Z,79.93
2023-03-04T11:45:28.493Z,79.29
2023-03-04T11:48:26.555Z,79.92
2023-03-04T11:51:02.107Z,80.25
2023-03-04T11:53:40.728Z,80.00
2023-03-04T11:56:39.722Z,79.18
2023-03-04T11:59:40.924Z,79.86
2023-03-04T12:02:39.683Z,79.32
2023-03-04T12:05:37.148Z,79.45
2023-03-04T12:08:11.780Z,79.54
2023-03-04T12:11:02.962Z,79.71
2023-03-04T12:13:50.935Z,80.21
2023-03-04T12:16:42.028Z,79.80
2023-03-04T12:19:20.832Z,79.87
2023-03-04T12:22:03.709Z,80.00
2023-03-04T12:25:04.167Z,79.21
2023-03-04T12:27:55.802Z,78.97
2023-03-04T12:30:57.744Z,78.90
2023-03-04T12:34:21.190Z,78.33
2023-03-04T12:37:08.084Z,77.63
2023-03-04T12:40:13.462Z,76.63
2023-03-04T12:43:04.646Z,77.03
2023-03-04T12:46:18.126Z,76.07
2023-03-04T12:49:30.346Z,75.84
2023-03-04T12:52:03.634Z,75.14
2023-03-04T12:54:43.589Z,75.13
2023-03-04T12:57:22.130Z,74.47
2023-03-04T13:00:33.060Z,74.16
2023-03-04T13:03:29.528Z,73.46
2023-03-04T13:06:09.955Z,72.77
2023-03-04T13:09:21.052Z,71.79
2023-03-04T13:12:12.919Z,71.13
2023-03-04T13:14:40.046Z,71.38
2023-03-04T13:17:55.908Z,70.84
2023-03-04T13:20:41.229Z,70.78
2023-03-04T13:23:13.948Z,70.52
2023-03-04T13:25:55.906Z,70.38
2023-03-04T13:28:27.132Z,70.18
2023-03-04T13:30:57.189Z,70.04
2023-03-04T13:33:24.155Z,70.81
2023-03-04T13:36:00.078Z,71.13
2023-03-04T13:38:37.168Z,71.85
2023-03-04T13:41:24.978Z,72.80
2023-03-04T13:44:06.147Z,72.19
2023-03-04T13:46:43.842Z,72.69
2023-03-04T13:49:24.718Z,72.73
2023-03-04T13:51:52.449Z,71.38
2023-03-04T13:54:32.387Z,71.37
2023-03-04T13:57:02.066Z,70.77
2023-03-04T13:59:57.144Z,70.93
2023-03-04T14:02:26.189Z,70.91
2023-03-04T14:05:02.105Z,70.34
2023-03-04T14:07:37.612Z,69.28
2023-03-04T14:10:14.992Z,68.34
2023-03-04T14:13:04.243Z,68.64
2023-03-04T14:15:33.516Z,68.76
2023-03-04T14:18:04.840Z,68.80
2023-03-04T14:20:49.462Z,68.35
2023-03-04T14:23:45.902Z,67.10
2023-03-04T14:26:18.683Z,67.04
2023-03-04T14:28:52.274Z,67.82
2023-03-04T14:31:24.290Z,67.55
2023-03-04T14:33:59.865Z,67.40
2023-03-04T14:36:28.291Z,67.16
2023-03-04T14:39:05.935Z,66.89
2023-03-04T14:41:43.232Z,66.36
2023-03-04T14:44:38.087Z,65.74
2023-03-04T14:47:40.806Z,65.57
2023-03-04T14:50:17.224Z,65.59
2023-03-04T14:53:24.508Z,65.07
2023-03-04T14:56:08.081Z,63.57
2023-03-04T14:58:52.074Z,62.98
2023-03-04T15:01:23.735Z,62.44
2023-03-04T15:04:13.346Z,61.84
2023-03-04T15:06:51.485Z,60.84
2023-03-04T15:09:26.318Z,59.60
2023-03-04T15:12:03.998Z,58.66
2023-03-04T15:14:50.591Z,58.44
2023-03-04T15:17:39.505Z,57.81
2023-03-04T15:20:06.461Z,56.92
2023-03-04T15:22:49.909Z,56.71
2023-03-04T15:25:20.395Z,56.20
2023-03-04T15:27:49.501Z,54.37
2023-03-04T15:30:29.660Z,52.07
2023-03-04T15:33:00.096Z,50.59
2023-03-04T15:35:33.446Z,49.21
2023-03-04T15:38:02.316Z,47.94
2023-03-04T15:40:39.565Z,47.17
2023-03-04T15:43:10.095Z,46.61
2023-03-04T15:45:39.217Z,46.71
2023-03-04T15:48:10.909Z,47.02
2023-03-04T15:51:00.685Z,46.88
2023-03-04T15:53:38.169Z,46.80
2023-03-04T15:56:09.236Z,46.92
2023-03-04T15:58:36.405Z,47.12
2023-03-04T16:01:03.724Z,45.89
2023-03-04T16:03:31.212Z,45.85
2023-03-04T16:05:59.472Z,45.65
2023-03-04T16:08:26.671Z,45.18
2023-03-04T16:10:54.800Z,44.85
2023-03-04T16:13:24.205Z,44.65
2023-03-04T16:15:51.579Z,44.49
2023-03-04T16:18:18.770Z,43.84
2023-03-04T16:20:48.947Z,43.18
2023-03-04T16:23:23.944Z,42.87
2023-03-04T16:25:56.227Z,42.37
2023-03-04T16:28:23.771Z,41.96
2023-03-04T16:30:50.970Z,41.22
2023-03-04T16:33:18.078Z,40.88
2023-03-04T16:35:46.592Z,40.19
2023-03-04T16:38:33.273Z,40.37
2023-03-04T16:41:04.575Z,40.26
2023-03-04T16:43:32.086Z,40.44
2023-03-04T16:45:59.183Z,40.10
2023-03-04T16:48:26.244Z,40.33
2023-03-04T16:50:53.430Z,40.01
2023-03-04T16:53:39.890Z,40.01
2023-03-04T16:56:13.985Z,40.31
2023-03-04T16:58:42.587Z,39.72
2023-03-04T17:01:28.679Z,39.69
2023-03-04T17:03:56.791Z,40.02
2023-03-04T17:06:24.645Z,39.61
2023-03-04T17:08:51.964Z,39.63
2023-03-04T17:11:22.554Z,39.64
2023-03-04T17:13:50.364Z,39.88
2023-03-04T17:16:18.306Z,39.82
2023-03-04T17:18:46.101Z,39.90
2023-03-04T17:21:25.970Z,40.00
2023-03-04T17:23:54.258Z,40.07
2023-03-04T17:26:22.718Z,40.01
2023-03-04T17:28:51.709Z,39.43
2023-03-04T17:31:21.005Z,39.50
2023-03-04T17:33:48.943Z,39.50
2023-03-04T17:36:18.195Z,39.52
2023-03-04T17:38:45.600Z,39.57
2023-03-04T17:41:17.557Z,39.49
2023-03-04T17:43:51.123Z,39.17
2023-03-04T17:46:25.879Z,38.67
2023-03-04T17:48:59.284Z,38.47
2023-03-04T17:51:36.475Z,38.58
2023-03-04T17:54:05.676Z,38.56
2023-03-04T17:56:34.501Z,38.97
2023-03-04T17:59:05.729Z,38.80
2023-03-04T18:01:32.775Z,39.40
2023-03-04T18:04:00.130Z,39.24
2023-03-04T18:06:27.266Z,39.79
2023-03-04T18:08:54.974Z,39.65
2023-03-04T18:11:24.997Z,39.59
2023-03-04T18:13:54.278Z,39.66
2023-03-04T18:16:27.166Z,39.38
2023-03-04T18:18:57.896Z,39.60
2023-03-04T18:21:27.140Z,39.49
2023-03-04T18:23:54.557Z,39.40
2023-03-04T18:26:25.364Z,39.25
2023-03-04T18:28:54.382Z,39.18
2023-03-04T18:31:31.081Z,39.00
2023-03-04T18:34:01.399Z,38.85
2023-03-04T18:36:29.647Z,38.78
2023-03-04T18:38:59.394Z,38.52
2023-03-04T18:41:27.840Z,38.38
2023-03-04T18:43:55.660Z,38.08
2023-03-04T18:46:53.604Z,38.30
2023-03-04T18:49:21.730Z,38.31
2023-03-04T18:51:48.882Z,38.56
2023-03-04T18:54:15.909Z,38.80
2023-03-04T18:57:02.142Z,38.87
2023-03-04T18:59:42.800Z,39.06
2023-03-04T19:02:16.988Z,38.77
2023-03-04T19:04:44.166Z,39.17
2023-03-04T19:07:11.179Z,38.81
2023-03-04T19:09:38.273Z,38.70
2023-03-04T19:12:06.658Z,38.99
2023-03-04T19:14:33.693Z,39.11
2023-03-04T19:17:00.700Z,39.20
2023-03-04T19:19:27.979Z,39.52
2023-03-04T19:21:55.130Z,39.87
2023-03-04T19:24:22.169Z,39.77
2023-03-04T19:26:49.324Z,39.92
2023-03-04T19:29:17.185Z,40.38
2023-03-04T19:31:44.171Z,40.32
2023-03-04T19:34:11.514Z,40.39
2023-03-04T19:36:39.430Z,40.59
2023-03-04T19:39:08.077Z,40.53
2023-03-04T19:41:35.222Z,40.70
2023-03-04T19:44:03.064Z,40.87
2023-03-04T19:46:31.467Z,40.52
2023-03-04T19:48:58.928Z,41.15
2023-03-04T19:51:27.033Z,40.68
2023-03-04T19:53:54.875Z,40.52
2023-03-04T19:56:23.972Z,41.00
2023-03-04T19:58:55.008Z,41.11
2023-03-04T20:01:34.027Z,41.01
2023-03-04T20:04:21.473Z,41.00
2023-03-04T20:06:51.079Z,40.97
2023-03-04T20:09:19.537Z,41.12
2023-03-04T20:11:57.656Z,40.91
2023-03-04T20:14:27.650Z,41.18
2023-03-04T20:16:58.849Z,41.42
2023-03-04T20:19:26.174Z,41.32
2023-03-04T20:21:53.380Z,40.98
2023-03-04T20:24:23.402Z,41.32
2023-03-04T20:26:51.200Z,41.21
2023-03-04T20:29:18.821Z,41.28
2023-03-04T20:31:46.648Z,41.45
2023-03-04T20:34:14.542Z,41.71
2023-03-04T20:36:41.901Z,41.31
2023-03-04T20:39:27.505Z,41.45
2023-03-04T20:41:59.365Z,41.89
2023-03-04T20:44:27.177Z,41.99
2023-03-04T20:46:54.489Z,41.87
2023-03-04T20:49:26.971Z,41.66
2023-03-04T20:52:00.762Z,41.68
2023-03-04T20:54:27.877Z,41.71
2023-03-04T20:56:55.041Z,42.11
2023-03-04T20:59:22.268Z,42.03
2023-03-04T21:01:49.767Z,42.28
2023-03-04T21:04:18.258Z,41.99
2023-03-04T21:06:47.537Z,42.03
2023-03-04T21:09:18.340Z,42.56
2023-03-04T21:11:45.934Z,42.60
2023-03-04T21:14:22.059Z,42.13
2023-03-04T21:16:52.174Z,42.40
2023-03-04T21:19:30.880Z,42.40
2023-03-04T21:22:00.545Z,42.52
2023-03-04T21:24:32.146Z,42.40
2023-03-04T21:27:01.625Z,42.27
2023-03-04T21:29:29.501Z,42.23
2023-03-04T21:32:22.439Z,42.54
2023-03-04T21:34:52.462Z,42.73
2023-03-04T21:37:21.969Z,42.67
2023-03-04T21:39:49.209Z,42.59
2023-03-04T21:42:16.401Z,42.65
2023-03-04T21:44:51.630Z,42.93
2023-03-04T21:47:21.143Z,43.04
2023-03-04T21:49:48.541Z,42.80
2023-03-04T21:52:17.168Z,42.70
2023-03-04T21:54:44.432Z,42.93
2023-03-04T21:57:12.095Z,43.13
2023-03-04T21:59:40.293Z,43.16
2023-03-04T22:02:14.321Z,43.23
2023-03-04T22:04:41.806Z,43.12
2023-03-04T22:07:10.283Z,43.50
2023-03-04T22:09:37.983Z,43.13
2023-03-04T22:12:05.671Z,43.16
2023-03-04T22:14:32.839Z,43.23
2023-03-04T22:17:00.086Z,43.43
2023-03-04T22:19:32.347Z,43.35
2023-03-04T22:21:59.962Z,43.44
2023-03-04T22:24:27.647Z,43.57
2023-03-04T22:26:56.908Z,44.00
2023-03-04T22:29:24.081Z,43.58
2023-03-04T22:31:51.246Z,43.66
2023-03-04T22:34:18.702Z,43.64
2023-03-04T22:36:47.422Z,43.63
2023-03-04T22:39:23.087Z,43.64
2023-03-04T22:41:50.439Z,44.03
2023-03-04T22:44:17.984Z,43.76
2023-03-04T22:46:45.123Z,44.31
2023-03-04T22:49:14.716Z,44.03
2023-03-04T22:51:44.405Z,44.12
2023-03-04T22:54:14.901Z,43.89
2023-03-04T22:56:42.416Z,44.44
2023-03-04T22:59:09.861Z,44.27
2023-03-04T23:01:37.663Z,44.21
2023-03-04T23:04:05.007Z,44.34
2023-03-04T23:06:32.461Z,44.49
2023-03-04T23:09:00.503Z,44.86
2023-03-04T23:11:35.476Z,44.52
2023-03-04T23:14:06.618Z,44.75
2023-03-04T23:16:42.438Z,44.63
2023-03-04T23:19:13.004Z,44.70
2023-03-04T23:21:40.266Z,45.12
2023-03-04T23:24:09.191Z,45.09
2023-03-04T23:26:39.447Z,45.11
2023-03-04T23:29:10.001Z,44.96
2023-03-04T23:31:37.143Z,45.18
2023-03-04T23:34:05.221Z,45.02
2023-03-04T23:36:36.254Z,45.30
2023-03-04T23:39:05.925Z,45.14
2023-03-04T23:41:34.665Z,44.86
2023-03-04T23:44:02.415Z,45.22
2023-03-04T23:49:28.037Z,45.38
2023-03-04T23:57:46.756Z,45.34
